sensor_id;sensor_type;location;lat;lon;timestamp;pressure;altitude;pressure_sealevel;temperature;humidity
20156;BME280;10238;49.556;10.956;2023-07-02T00:00:27;97520.66;;;18.53;100.00
20156;BME280;10238;49.556;10.956;2023-07-02T00:03:15;97519.84;;;18.52;100.00
20156;BME280;10238;49.556;10.956;2023-07-02T00:06:04;97523.13;;;18.54;100.00
20156;BME280;10238;49.556;10.956;2023-07-02T00:08:52;97526.88;;;18.53;100.00
20156;BME280;10238;49.556;10.956;2023-07-02T00:11:42;97519.00;;;18.52;100.00
20156;BME280;10238;49.556;10.956;2023-07-02T00:14:30;97525.00;;;18.54;100.00
20156;BME280;10238;49.556;10.956;2023-07-02T00:17:18;97526.88;;;18.53;100.00
20156;BME280;10238;49.556;10.956;2023-07-02T00:20:07;97531.06;;;18.49;100.00
20156;BME280;10238;49.556;10.956;2023-07-02T00:23:02;97537.34;;;18.43;100.00
20156;BME280;10238;49.556;10.956;2023-07-02T00:25:49;97534.88;;;18.42;100.00
20156;BME280;10238;49.556;10.956;2023-07-02T00:28:37;97532.84;;;18.37;100.00
20156;BME280;10238;49.556;10.956;2023-07-02T00:31:24;97543.63;;;18.31;100.00
20156;BME280;10238;49.556;10.956;2023-07-02T00:34:12;97539.13;;;18.25;100.00
20156;BME280;10238;49.556;10.956;2023-07-02T00:37:00;97535.47;;;18.19;100.00
20156;BME280;10238;49.556;10.956;2023-07-02T00:39:52;97541.28;;;18.16;100.00
20156;BME280;10238;49.556;10.956;2023-07-02T00:42:40;97547.34;;;18.12;100.00
20156;BME280;10238;49.556;10.956;2023-07-02T00:45:28;97538.06;;;18.08;100.00
20156;BME280;10238;49.556;10.956;2023-07-02T00:48:18;97539.34;;;18.05;100.00
20156;BME280;10238;49.556;10.956;2023-07-02T00:51:09;97538.28;;;18.06;100.00
20156;BME280;10238;49.556;10.956;2023-07-02T00:53:58;97530.66;;;18.03;100.00
20156;BME280;10238;49.556;10.956;2023-07-02T00:56:47;97539.13;;;18.07;100.00
20156;BME280;10238;49.556;10.956;2023-07-02T00:59:35;97534.78;;;18.06;100.00
20156;BME280;10238;49.556;10.956;2023-07-02T01:02:25;97539.94;;;18.07;100.00
20156;BME280;10238;49.556;10.956;2023-07-02T01:05:16;97554.22;;;18.08;100.00
20156;BME280;10238;49.556;10.956;2023-07-02T01:08:08;97554.00;;;18.09;100.00
20156;BME280;10238;49.556;10.956;2023-07-02T01:10:58;97564.75;;;18.09;100.00
20156;BME280;10238;49.556;10.956;2023-07-02T01:13:49;97559.97;;;18.11;100.00
20156;BME280;10238;49.556;10.956;2023-07-02T01:16:38;97558.31;;;18.10;100.00
20156;BME280;10238;49.556;10.956;2023-07-02T01:19:43;97559.16;;;18.11;100.00
20156;BME280;10238;49.556;10.956;2023-07-02T01:22:31;97558.94;;;18.12;100.00
20156;BME280;10238;49.556;10.956;2023-07-02T01:25:20;97557.44;;;18.16;100.00
20156;BME280;10238;49.556;10.956;2023-07-02T01:28:11;97561.19;;;18.15;100.00
20156;BME280;10238;49.556;10.956;2023-07-02T01:31:00;97555.34;;;18.18;100.00
20156;BME280;10238;49.556;10.956;2023-07-02T01:33:48;97567.75;;;18.19;100.00
20156;BME280;10238;49.556;10.956;2023-07-02T01:36:37;97558.28;;;18.17;100.00
20156;BME280;10238;49.556;10.956;2023-07-02T01:39:25;97564.03;;;18.20;100.00
20156;BME280;10238;49.556;10.956;2023-07-02T01:42:15;97565.06;;;18.19;100.00
20156;BME280;10238;49.556;10.956;2023-07-02T01:45:05;97573.97;;;18.20;100.00
20156;BME280;10238;49.556;10.956;2023-07-02T01:47:53;97573.56;;;18.16;100.00
20156;BME280;10238;49.556;10.956;2023-07-02T01:50:40;97574.03;;;18.13;100.00
20156;BME280;10238;49.556;10.956;2023-07-02T01:53:30;97575.69;;;18.14;100.00
20156;BME280;10238;49.556;10.956;2023-07-02T01:56:17;97573.22;;;18.13;100.00
20156;BME280;10238;49.556;10.956;2023-07-02T01:59:05;97576.56;;;18.08;100.00
20156;BME280;10238;49.556;10.956;2023-07-02T02:01:53;97594.78;;;18.06;100.00
20156;BME280;10238;49.556;10.956;2023-07-02T02:04:41;97588.19;;;18.02;100.00
20156;BME280;10238;49.556;10.956;2023-07-02T02:07:30;97587.59;;;18.00;100.00
20156;BME280;10238;49.556;10.956;2023-07-02T02:10:20;97594.03;;;17.99;100.00
20156;BME280;10238;49.556;10.956;2023-07-02T02:13:07;97587.00;;;17.98;100.00
20156;BME280;10238;49.556;10.956;2023-07-02T02:15:55;97589.94;;;17.90;100.00
20156;BME280;10238;49.556;10.956;2023-07-02T02:18:43;97591.88;;;17.83;100.00
20156;BME280;10238;49.556;10.956;2023-07-02T02:21:31;97593.38;;;17.79;100.00
20156;BME280;10238;49.556;10.956;2023-07-02T02:24:18;97597.50;;;17.75;100.00
20156;BME280;10238;49.556;10.956;2023-07-02T02:27:10;97595.03;;;17.74;100.00
20156;BME280;10238;49.556;10.956;2023-07-02T02:30:00;97595.88;;;17.74;100.00
20156;BME280;10238;49.556;10.956;2023-07-02T02:32:47;97590.56;;;17.68;100.00
20156;BME280;10238;49.556;10.956;2023-07-02T02:35:35;97588.34;;;17.58;100.00
20156;BME280;10238;49.556;10.956;2023-07-02T02:38:23;97582.34;;;17.56;100.00
20156;BME280;10238;49.556;10.956;2023-07-02T02:41:11;97587.78;;;17.50;100.00
20156;BME280;10238;49.556;10.956;2023-07-02T02:44:00;97587.38;;;17.46;100.00
20156;BME280;10238;49.556;10.956;2023-07-02T02:46:48;97593.34;;;17.42;100.00
20156;BME280;10238;49.556;10.956;2023-07-02T02:49:37;97591.78;;;17.34;100.00
20156;BME280;10238;49.556;10.956;2023-07-02T02:52:26;97591.59;;;17.29;100.00
20156;BME280;10238;49.556;10.956;2023-07-02T02:55:13;97589.75;;;17.23;100.00
20156;BME280;10238;49.556;10.956;2023-07-02T02:58:01;97595.41;;;17.15;100.00
20156;BME280;10238;49.556;10.956;2023-07-02T03:00:51;97597.06;;;17.09;100.00
20156;BME280;10238;49.556;10.956;2023-07-02T03:03:39;97599.94;;;17.08;100.00
20156;BME280;10238;49.556;10.956;2023-07-02T03:06:32;97592.50;;;17.10;100.00
20156;BME280;10238;49.556;10.956;2023-07-02T03:09:20;97591.88;;;17.08;100.00
20156;BME280;10238;49.556;10.956;2023-07-02T03:12:08;97600.56;;;17.10;100.00
20156;BME280;10238;49.556;10.956;2023-07-02T03:14:56;97601.63;;;17.09;100.00
20156;BME280;10238;49.556;10.956;2023-07-02T03:17:45;97596.66;;;17.06;100.00
20156;BME280;10238;49.556;10.956;2023-07-02T03:20:32;97602.03;;;17.06;100.00
20156;BME280;10238;49.556;10.956;2023-07-02T03:23:20;97606.59;;;17.05;100.00
20156;BME280;10238;49.556;10.956;2023-07-02T03:26:08;97613.81;;;17.05;100.00
20156;BME280;10238;49.556;10.956;2023-07-02T03:28:56;97611.13;;;17.05;100.00
20156;BME280;10238;49.556;10.956;2023-07-02T03:31:43;97605.38;;;17.01;100.00
20156;BME280;10238;49.556;10.956;2023-07-02T03:34:32;97615.28;;;17.01;100.00
20156;BME280;10238;49.556;10.956;2023-07-02T03:37:22;97626.44;;;16.98;100.00
20156;BME280;10238;49.556;10.956;2023-07-02T03:40:11;97627.47;;;16.97;100.00
20156;BME280;10238;49.556;10.956;2023-07-02T03:42:58;97631.22;;;16.96;100.00
20156;BME280;10238;49.556;10.956;2023-07-02T03:45:46;97622.31;;;16.95;100.00
20156;BME280;10238;49.556;10.956;2023-07-02T03:48:34;97631.00;;;16.97;100.00
20156;BME280;10238;49.556;10.956;2023-07-02T03:51:23;97635.53;;;16.97;100.00
20156;BME280;10238;49.556;10.956;2023-07-02T03:54:11;97637.81;;;17.00;100.00
20156;BME280;10238;49.556;10.956;2023-07-02T03:56:59;97642.97;;;17.01;100.00
20156;BME280;10238;49.556;10.956;2023-07-02T03:59:47;97640.50;;;17.00;100.00
20156;BME280;10238;49.556;10.956;2023-07-02T04:02:35;97646.44;;;17.02;100.00
20156;BME280;10238;49.556;10.956;2023-07-02T04:05:23;97656.19;;;17.03;100.00
20156;BME280;10238;49.556;10.956;2023-07-02T04:08:12;97645.00;;;17.06;100.00
20156;BME280;10238;49.556;10.956;2023-07-02T04:11:00;97651.59;;;17.03;100.00
20156;BME280;10238;49.556;10.956;2023-07-02T04:13:47;97649.13;;;17.02;100.00
20156;BME280;10238;49.556;10.956;2023-07-02T04:16:35;97652.44;;;17.04;100.00
20156;BME280;10238;49.556;10.956;2023-07-02T04:19:23;97652.03;;;17.07;100.00
20156;BME280;10238;49.556;10.956;2023-07-02T04:22:11;97659.03;;;17.08;100.00
20156;BME280;10238;49.556;10.956;2023-07-02T04:25:00;97659.03;;;17.08;100.00
20156;BME280;10238;49.556;10.956;2023-07-02T04:28:08;97664.81;;;17.11;100.00
20156;BME280;10238;49.556;10.956;2023-07-02T04:30:56;97661.91;;;17.13;100.00
20156;BME280;10238;49.556;10.956;2023-07-02T04:33:43;97666.25;;;17.14;100.00
20156;BME280;10238;49.556;10.956;2023-07-02T04:36:31;97668.13;;;17.13;100.00
20156;BME280;10238;49.556;10.956;2023-07-02T04:39:18;97674.94;;;17.16;100.00
20156;BME280;10238;49.556;10.956;2023-07-02T04:42:07;97673.44;;;17.20;100.00
20156;BME280;10238;49.556;10.956;2023-07-02T04:44:56;97667.66;;;17.23;100.00
20156;BME280;10238;49.556;10.956;2023-07-02T04:47:48;97673.03;;;17.23;100.00
20156;BME280;10238;49.556;10.956;2023-07-02T04:50:36;97673.88;;;17.23;100.00
20156;BME280;10238;49.556;10.956;2023-07-02T04:53:24;97675.06;;;17.27;100.00
20156;BME280;10238;49.556;10.956;2023-07-02T04:56:12;97687.25;;;17.30;100.00
20156;BME280;10238;49.556;10.956;2023-07-02T04:59:01;97684.13;;;17.33;100.00
20156;BME280;10238;49.556;10.956;2023-07-02T05:01:49;97672.38;;;17.34;100.00
20156;BME280;10238;49.556;10.956;2023-07-02T05:04:37;97683.50;;;17.38;100.00
20156;BME280;10238;49.556;10.956;2023-07-02T05:07:28;97684.53;;;17.43;100.00
20156;BME280;10238;49.556;10.956;2023-07-02T05:10:15;97682.03;;;17.48;100.00
20156;BME280;10238;49.556;10.956;2023-07-02T05:13:03;97701.63;;;17.55;100.00
20156;BME280;10238;49.556;10.956;2023-07-02T05:15:52;97695.19;;;17.63;100.00
20156;BME280;10238;49.556;10.956;2023-07-02T05:18:40;97699.50;;;17.70;100.00
20156;BME280;10238;49.556;10.956;2023-07-02T05:21:28;97699.28;;;17.72;100.00
20156;BME280;10238;49.556;10.956;2023-07-02T05:24:23;97698.84;;;17.75;100.00
20156;BME280;10238;49.556;10.956;2023-07-02T05:27:11;97706.28;;;17.79;100.00
20156;BME280;10238;49.556;10.956;2023-07-02T05:30:02;97693.00;;;17.84;100.00
20156;BME280;10238;49.556;10.956;2023-07-02T05:32:51;97699.78;;;17.93;100.00
20156;BME280;10238;49.556;10.956;2023-07-02T05:35:39;97711.91;;;18.02;100.00
20156;BME280;10238;49.556;10.956;2023-07-02T05:38:27;97704.41;;;18.11;100.00
20156;BME280;10238;49.556;10.956;2023-07-02T05:41:18;97696.91;;;18.19;100.00
20156;BME280;10238;49.556;10.956;2023-07-02T05:44:06;97692.28;;;18.26;100.00
20156;BME280;10238;49.556;10.956;2023-07-02T05:46:53;97687.28;;;18.30;100.00
20156;BME280;10238;49.556;10.956;2023-07-02T05:49:43;97705.47;;;18.34;100.00
20156;BME280;10238;49.556;10.956;2023-07-02T05:52:31;97699.25;;;18.40;100.00
20156;BME280;10238;49.556;10.956;2023-07-02T05:55:18;97703.31;;;18.49;100.00
20156;BME280;10238;49.556;10.956;2023-07-02T05:58:06;97706.78;;;18.56;100.00
20156;BME280;10238;49.556;10.956;2023-07-02T06:00:54;97706.91;;;18.61;100.00
20156;BME280;10238;49.556;10.956;2023-07-02T06:03:42;97705.88;;;18.62;100.00
20156;BME280;10238;49.556;10.956;2023-07-02T06:06:33;97705.50;;;18.59;100.00
20156;BME280;10238;49.556;10.956;2023-07-02T06:09:21;97714.34;;;18.66;100.00
20156;BME280;10238;49.556;10.956;2023-07-02T06:12:09;97707.25;;;18.71;100.00
20156;BME280;10238;49.556;10.956;2023-07-02T06:14:57;97719.22;;;18.75;100.00
20156;BME280;10238;49.556;10.956;2023-07-02T06:17:44;97716.53;;;18.75;100.00
20156;BME280;10238;49.556;10.956;2023-07-02T06:20:32;97723.56;;;18.76;100.00
20156;BME280;10238;49.556;10.956;2023-07-02T06:23:21;97714.00;;;18.80;100.00
20156;BME280;10238;49.556;10.956;2023-07-02T06:26:09;97724.03;;;18.91;100.00
20156;BME280;10238;49.556;10.956;2023-07-02T06:28:57;97727.50;;;18.98;100.00
20156;BME280;10238;49.556;10.956;2023-07-02T06:31:44;97726.28;;;19.12;100.00
20156;BME280;10238;49.556;10.956;2023-07-02T06:34:32;97720.19;;;19.23;100.00
20156;BME280;10238;49.556;10.956;2023-07-02T06:37:20;97720.59;;;19.27;100.00
20156;BME280;10238;49.556;10.956;2023-07-02T06:40:10;97716.63;;;19.30;100.00
20156;BME280;10238;49.556;10.956;2023-07-02T06:42:58;97715.41;;;19.25;100.00
20156;BME280;10238;49.556;10.956;2023-07-02T06:45:46;97720.22;;;19.42;100.00
20156;BME280;10238;49.556;10.956;2023-07-02T06:48:34;97722.88;;;19.60;100.00
20156;BME280;10238;49.556;10.956;2023-07-02T06:51:22;97710.66;;;19.75;100.00
20156;BME280;10238;49.556;10.956;2023-07-02T06:54:12;97712.34;;;19.88;100.00
20156;BME280;10238;49.556;10.956;2023-07-02T06:57:02;97713.56;;;20.03;98.87
20156;BME280;10238;49.556;10.956;2023-07-02T06:59:50;97718.09;;;20.21;93.48
20156;BME280;10238;49.556;10.956;2023-07-02T07:02:38;97708.63;;;20.30;91.83
20156;BME280;10238;49.556;10.956;2023-07-02T07:05:25;97717.19;;;20.38;89.50
20156;BME280;10238;49.556;10.956;2023-07-02T07:08:16;97715.00;;;20.47;86.83
20156;BME280;10238;49.556;10.956;2023-07-02T07:11:04;97713.38;;;20.69;87.23
20156;BME280;10238;49.556;10.956;2023-07-02T07:13:53;97712.78;;;20.90;85.91
20156;BME280;10238;49.556;10.956;2023-07-02T07:16:41;97706.59;;;21.01;85.41
20156;BME280;10238;49.556;10.956;2023-07-02T07:19:30;97712.22;;;21.22;86.29
20156;BME280;10238;49.556;10.956;2023-07-02T07:22:18;97703.69;;;21.42;82.79
20156;BME280;10238;49.556;10.956;2023-07-02T07:25:07;97708.97;;;21.49;81.99
20156;BME280;10238;49.556;10.956;2023-07-02T07:27:55;97707.97;;;21.66;80.80
20156;BME280;10238;49.556;10.956;2023-07-02T07:30:44;97711.09;;;21.86;78.07
20156;BME280;10238;49.556;10.956;2023-07-02T07:33:33;97708.84;;;21.95;75.79
20156;BME280;10238;49.556;10.956;2023-07-02T07:36:21;97712.66;;;21.82;77.31
20156;BME280;10238;49.556;10.956;2023-07-02T07:39:09;97712.84;;;21.92;76.92
20156;BME280;10238;49.556;10.956;2023-07-02T07:41:58;97708.47;;;22.03;74.57
20156;BME280;10238;49.556;10.956;2023-07-02T07:44:46;97717.78;;;21.95;73.86
20156;BME280;10238;49.556;10.956;2023-07-02T07:47:35;97725.81;;;21.90;73.19
20156;BME280;10238;49.556;10.956;2023-07-02T07:50:23;97732.44;;;21.83;74.50
20156;BME280;10238;49.556;10.956;2023-07-02T07:53:12;97720.50;;;21.95;74.40
20156;BME280;10238;49.556;10.956;2023-07-02T07:56:02;97708.88;;;22.11;73.49
20156;BME280;10238;49.556;10.956;2023-07-02T07:58:52;97730.53;;;22.11;72.03
20156;BME280;10238;49.556;10.956;2023-07-02T08:01:39;97722.13;;;21.96;73.29
20156;BME280;10238;49.556;10.956;2023-07-02T08:04:29;97730.16;;;21.91;73.18
20156;BME280;10238;49.556;10.956;2023-07-02T08:07:17;97726.34;;;21.76;73.64
20156;BME280;10238;49.556;10.956;2023-07-02T08:10:06;97734.03;;;21.95;73.92
20156;BME280;10238;49.556;10.956;2023-07-02T08:12:54;97719.88;;;22.05;73.17
20156;BME280;10238;49.556;10.956;2023-07-02T08:15:42;97729.75;;;21.99;73.42
20156;BME280;10238;49.556;10.956;2023-07-02T08:18:31;97734.75;;;21.91;73.79
20156;BME280;10238;49.556;10.956;2023-07-02T08:21:20;97724.63;;;22.14;73.66
20156;BME280;10238;49.556;10.956;2023-07-02T08:24:07;97728.00;;;22.49;70.36
20156;BME280;10238;49.556;10.956;2023-07-02T08:26:55;97719.16;;;22.54;69.56
20156;BME280;10238;49.556;10.956;2023-07-02T08:29:43;97730.63;;;22.44;68.77
20156;BME280;10238;49.556;10.956;2023-07-02T08:32:33;97731.41;;;22.28;69.48
20156;BME280;10238;49.556;10.956;2023-07-02T08:35:22;97731.72;;;22.32;69.83
20156;BME280;10238;49.556;10.956;2023-07-02T08:38:13;97727.22;;;22.37;70.02
20156;BME280;10238;49.556;10.956;2023-07-02T08:41:01;97728.50;;;22.63;69.79
20156;BME280;10238;49.556;10.956;2023-07-02T08:43:49;97730.63;;;22.61;68.23
20156;BME280;10238;49.556;10.956;2023-07-02T08:46:38;97744.91;;;22.56;68.15
20156;BME280;10238;49.556;10.956;2023-07-02T08:49:27;97731.94;;;22.91;67.74
20156;BME280;10238;49.556;10.956;2023-07-02T08:52:15;97729.28;;;23.29;66.64
20156;BME280;10238;49.556;10.956;2023-07-02T08:55:05;97748.50;;;23.28;64.70
20156;BME280;10238;49.556;10.956;2023-07-02T08:57:54;97741.44;;;23.10;63.50
20156;BME280;10238;49.556;10.956;2023-07-02T09:01:09;97734.41;;;23.26;65.99
20156;BME280;10238;49.556;10.956;2023-07-02T09:03:59;97733.78;;;23.62;64.16
20156;BME280;10238;49.556;10.956;2023-07-02T09:06:48;97737.66;;;23.88;62.77
20156;BME280;10238;49.556;10.956;2023-07-02T09:09:45;97727.97;;;23.97;61.80
20156;BME280;10238;49.556;10.956;2023-07-02T09:12:35;97736.59;;;23.94;61.48
20156;BME280;10238;49.556;10.956;2023-07-02T09:15:25;97725.59;;;24.27;61.58
20156;BME280;10238;49.556;10.956;2023-07-02T09:18:17;97720.75;;;24.60;61.32
20156;BME280;10238;49.556;10.956;2023-07-02T09:21:05;97732.13;;;24.84;59.98
20156;BME280;10238;49.556;10.956;2023-07-02T09:23:53;97731.50;;;25.13;59.01
20156;BME280;10238;49.556;10.956;2023-07-02T09:26:43;97721.38;;;25.41;57.66
20156;BME280;10238;49.556;10.956;2023-07-02T09:29:33;97730.41;;;25.51;57.09
20156;BME280;10238;49.556;10.956;2023-07-02T09:32:25;97733.13;;;25.51;55.87
20156;BME280;10238;49.556;10.956;2023-07-02T09:35:14;97731.41;;;25.40;56.40
20156;BME280;10238;49.556;10.956;2023-07-02T09:38:02;97734.13;;;25.35;55.61
20156;BME280;10238;49.556;10.956;2023-07-02T09:40:52;97739.94;;;25.12;56.06
20156;BME280;10238;49.556;10.956;2023-07-02T09:43:40;97749.69;;;25.08;56.15
20156;BME280;10238;49.556;10.956;2023-07-02T09:46:31;97742.88;;;25.05;56.56
20156;BME280;10238;49.556;10.956;2023-07-02T09:49:21;97742.09;;;25.10;55.83
20156;BME280;10238;49.556;10.956;2023-07-02T09:52:11;97732.00;;;25.42;54.94
20156;BME280;10238;49.556;10.956;2023-07-02T09:55:00;97732.91;;;25.68;53.50
20156;BME280;10238;49.556;10.956;2023-07-02T09:57:48;97729.34;;;25.57;53.97
20156;BME280;10238;49.556;10.956;2023-07-02T10:00:36;97746.69;;;25.41;54.72
20156;BME280;10238;49.556;10.956;2023-07-02T10:03:32;97736.38;;;25.53;55.85
20156;BME280;10238;49.556;10.956;2023-07-02T10:06:22;97748.06;;;26.00;52.96
20156;BME280;10238;49.556;10.956;2023-07-02T10:09:11;97748.38;;;26.14;52.58
20156;BME280;10238;49.556;10.956;2023-07-02T10:11:59;97734.78;;;26.19;52.62
20156;BME280;10238;49.556;10.956;2023-07-02T10:14:48;97741.34;;;26.43;52.02
20156;BME280;10238;49.556;10.956;2023-07-02T10:17:36;97741.09;;;26.49;52.02
20156;BME280;10238;49.556;10.956;2023-07-02T10:20:36;97728.06;;;26.91;51.56
20156;BME280;10238;49.556;10.956;2023-07-02T10:23:33;97733.50;;;27.27;50.71
20156;BME280;10238;49.556;10.956;2023-07-02T10:26:22;97736.41;;;27.60;48.83
20156;BME280;10238;49.556;10.956;2023-07-02T10:29:19;97734.63;;;27.99;49.05
20156;BME280;10238;49.556;10.956;2023-07-02T10:32:10;97732.34;;;28.65;47.18
20156;BME280;10238;49.556;10.956;2023-07-02T10:34:58;97732.09;;;28.95;45.43
20156;BME280;10238;49.556;10.956;2023-07-02T10:37:50;97739.97;;;28.68;44.55
20156;BME280;10238;49.556;10.956;2023-07-02T10:40:38;97744.53;;;28.39;44.27
20156;BME280;10238;49.556;10.956;2023-07-02T10:43:26;97750.63;;;28.26;44.36
20156;BME280;10238;49.556;10.956;2023-07-02T10:46:19;97746.22;;;28.30;45.03
20156;BME280;10238;49.556;10.956;2023-07-02T10:49:07;97748.38;;;28.33;44.58
20156;BME280;10238;49.556;10.956;2023-07-02T10:51:59;97739.59;;;28.46;43.52
20156;BME280;10238;49.556;10.956;2023-07-02T10:54:49;97741.88;;;28.67;44.92
20156;BME280;10238;49.556;10.956;2023-07-02T10:57:42;97741.97;;;28.91;43.22
20156;BME280;10238;49.556;10.956;2023-07-02T11:00:30;97739.97;;;29.06;42.37
20156;BME280;10238;49.556;10.956;2023-07-02T11:03:20;97740.91;;;28.87;43.01
20156;BME280;10238;49.556;10.956;2023-07-02T11:06:08;97750.41;;;28.66;43.00
20156;BME280;10238;49.556;10.956;2023-07-02T11:08:57;97746.72;;;28.47;44.25
20156;BME280;10238;49.556;10.956;2023-07-02T11:11:57;97746.94;;;28.50;44.29
20156;BME280;10238;49.556;10.956;2023-07-02T11:14:45;97751.34;;;28.41;43.51
20156;BME280;10238;49.556;10.956;2023-07-02T11:17:33;97747.91;;;28.21;44.18
20156;BME280;10238;49.556;10.956;2023-07-02T11:20:22;97747.41;;;28.14;43.25
20156;BME280;10238;49.556;10.956;2023-07-02T11:23:19;97754.59;;;27.95;43.46
20156;BME280;10238;49.556;10.956;2023-07-02T11:26:08;97750.25;;;27.89;43.62
20156;BME280;10238;49.556;10.956;2023-07-02T11:28:58;97747.34;;;28.24;43.04
20156;BME280;10238;49.556;10.956;2023-07-02T11:31:46;97750.69;;;28.11;42.67
20156;BME280;10238;49.556;10.956;2023-07-02T11:34:34;97756.81;;;27.93;42.80
20156;BME280;10238;49.556;10.956;2023-07-02T11:37:23;97747.59;;;27.64;43.32
20156;BME280;10238;49.556;10.956;2023-07-02T11:40:16;97739.66;;;27.62;43.20
20156;BME280;10238;49.556;10.956;2023-07-02T11:43:05;97742.06;;;27.79;42.70
20156;BME280;10238;49.556;10.956;2023-07-02T11:45:54;97738.88;;;28.25;42.97
20156;BME280;10238;49.556;10.956;2023-07-02T11:48:42;97728.09;;;28.49;40.93
20156;BME280;10238;49.556;10.956;2023-07-02T11:51:31;97735.28;;;28.30;42.45
20156;BME280;10238;49.556;10.956;2023-07-02T11:54:19;97740.41;;;27.93;42.69
20156;BME280;10238;49.556;10.956;2023-07-02T11:57:07;97745.06;;;27.92;43.55
20156;BME280;10238;49.556;10.956;2023-07-02T11:59:55;97743.63;;;28.05;43.65
20156;BME280;10238;49.556;10.956;2023-07-02T12:02:48;97742.34;;;28.36;42.26
20156;BME280;10238;49.556;10.956;2023-07-02T12:05:36;97736.41;;;28.24;41.95
20156;BME280;10238;49.556;10.956;2023-07-02T12:08:24;97731.22;;;28.27;41.48
20156;BME280;10238;49.556;10.956;2023-07-02T12:11:13;97722.66;;;28.39;42.05
20156;BME280;10238;49.556;10.956;2023-07-02T12:14:02;97741.97;;;28.91;40.91
20156;BME280;10238;49.556;10.956;2023-07-02T12:16:50;97724.69;;;28.67;40.55
20156;BME280;10238;49.556;10.956;2023-07-02T12:19:39;97723.19;;;28.79;41.02
20156;BME280;10238;49.556;10.956;2023-07-02T12:22:27;97723.25;;;29.08;40.18
20156;BME280;10238;49.556;10.956;2023-07-02T12:25:15;97726.13;;;28.88;39.40
20156;BME280;10238;49.556;10.956;2023-07-02T12:28:04;97731.88;;;28.53;39.92
20156;BME280;10238;49.556;10.956;2023-07-02T12:30:52;97722.09;;;28.42;40.82
20156;BME280;10238;49.556;10.956;2023-07-02T12:33:41;97721.19;;;28.90;39.60
20156;BME280;10238;49.556;10.956;2023-07-02T12:36:30;97701.38;;;29.03;38.63
20156;BME280;10238;49.556;10.956;2023-07-02T12:39:18;97720.41;;;29.18;38.51
20156;BME280;10238;49.556;10.956;2023-07-02T12:42:09;97713.91;;;29.14;37.32
20156;BME280;10238;49.556;10.956;2023-07-02T12:44:58;97717.91;;;28.88;38.92
20156;BME280;10238;49.556;10.956;2023-07-02T12:47:45;97722.72;;;29.06;39.44
20156;BME280;10238;49.556;10.956;2023-07-02T12:50:33;97712.53;;;29.40;38.69
20156;BME280;10238;49.556;10.956;2023-07-02T12:53:23;97726.69;;;29.47;38.12
20156;BME280;10238;49.556;10.956;2023-07-02T12:56:11;97722.75;;;29.30;38.95
20156;BME280;10238;49.556;10.956;2023-07-02T12:59:01;97729.25;;;29.10;39.31
20156;BME280;10238;49.556;10.956;2023-07-02T13:01:49;97727.78;;;28.89;39.89
20156;BME280;10238;49.556;10.956;2023-07-02T13:04:37;97722.97;;;28.76;39.62
20156;BME280;10238;49.556;10.956;2023-07-02T13:07:26;97725.25;;;28.64;39.38
20156;BME280;10238;49.556;10.956;2023-07-02T13:10:18;97722.03;;;28.57;39.50
20156;BME280;10238;49.556;10.956;2023-07-02T13:13:06;97727.97;;;28.64;40.47
20156;BME280;10238;49.556;10.956;2023-07-02T13:16:08;97727.41;;;28.67;40.09
20156;BME280;10238;49.556;10.956;2023-07-02T13:18:56;97731.19;;;28.71;39.77
20156;BME280;10238;49.556;10.956;2023-07-02T13:21:44;97717.56;;;28.66;38.10
20156;BME280;10238;49.556;10.956;2023-07-02T13:24:34;97729.31;;;28.66;37.98
20156;BME280;10238;49.556;10.956;2023-07-02T13:27:24;97719.16;;;28.72;37.73
20156;BME280;10238;49.556;10.956;2023-07-02T13:30:13;97725.63;;;28.81;37.54
20156;BME280;10238;49.556;10.956;2023-07-02T13:33:01;97727.78;;;28.55;38.01
20156;BME280;10238;49.556;10.956;2023-07-02T13:35:49;97728.22;;;28.67;38.52
20156;BME280;10238;49.556;10.956;2023-07-02T13:38:38;97722.44;;;29.02;37.99
20156;BME280;10238;49.556;10.956;2023-07-02T13:41:26;97721.22;;;28.85;37.39
20156;BME280;10238;49.556;10.956;2023-07-02T13:44:16;97713.66;;;29.10;37.93
20156;BME280;10238;49.556;10.956;2023-07-02T13:47:05;97722.00;;;29.24;37.76
20156;BME280;10238;49.556;10.956;2023-07-02T13:49:53;97717.59;;;29.52;37.84
20156;BME280;10238;49.556;10.956;2023-07-02T13:52:41;97723.19;;;29.42;37.95
20156;BME280;10238;49.556;10.956;2023-07-02T13:55:29;97717.97;;;29.69;37.20
20156;BME280;10238;49.556;10.956;2023-07-02T13:58:17;97717.50;;;30.04;37.57
20156;BME280;10238;49.556;10.956;2023-07-02T14:01:17;97722.09;;;30.32;36.76
20156;BME280;10238;49.556;10.956;2023-07-02T14:04:05;97725.06;;;30.35;36.68
20156;BME280;10238;49.556;10.956;2023-07-02T14:06:56;97713.41;;;30.43;36.08
20156;BME280;10238;49.556;10.956;2023-07-02T14:09:45;97721.00;;;30.51;35.35
20156;BME280;10238;49.556;10.956;2023-07-02T14:12:33;97721.47;;;30.53;36.40
20156;BME280;10238;49.556;10.956;2023-07-02T14:15:21;97716.28;;;30.70;35.97
20156;BME280;10238;49.556;10.956;2023-07-02T14:18:11;97711.50;;;30.94;35.64
20156;BME280;10238;49.556;10.956;2023-07-02T14:21:00;97724.00;;;30.68;35.86
20156;BME280;10238;49.556;10.956;2023-07-02T14:23:50;97719.66;;;30.30;35.00
20156;BME280;10238;49.556;10.956;2023-07-02T14:26:38;97740.28;;;29.81;36.74
20156;BME280;10238;49.556;10.956;2023-07-02T14:29:26;97726.63;;;29.76;36.44
20156;BME280;10238;49.556;10.956;2023-07-02T14:32:15;97734.34;;;29.74;36.61
20156;BME280;10238;49.556;10.956;2023-07-02T14:35:06;97723.53;;;29.64;36.46
20156;BME280;10238;49.556;10.956;2023-07-02T14:37:54;97727.50;;;29.48;35.67